createdAt,value
2018-01-14T00:00:19.923Z,95399.77
2018-01-14T00:02:48.299Z,95395.79
2018-01-14T00:05:16.754Z,95392.88
2018-01-14T00:07:45.102Z,95385.73
2018-01-14T00:10:13.455Z,95388.13
2018-01-14T00:12:41.831Z,95392.73
2018-01-14T00:15:11.154Z,95382.79
2018-01-14T00:17:39.561Z,95387.49
2018-01-14T00:20:07.952Z,95384.31
2018-01-14T00:22:36.318Z,95377.66
2018-01-14T00:25:04.679Z,95382.06
2018-01-14T00:27:33.046Z,95378.14
2018-01-14T00:30:01.463Z,95377.09
2018-01-14T00:32:29.831Z,95377.01
2018-01-14T00:34:58.188Z,95374.34
2018-01-14T00:37:26.560Z,95386.89
2018-01-14T00:39:54.910Z,95372.64
2018-01-14T00:42:23.313Z,95375.83
2018-01-14T00:44:51.662Z,95378.16
2018-01-14T00:47:20.029Z,95379.77
2018-01-14T00:49:48.385Z,95378.25
2018-01-14T00:52:16.778Z,95386.30
2018-01-14T00:54:45.178Z,95374.09
2018-01-14T00:57:13.545Z,95374.97
2018-01-14T00:59:41.915Z,95381.05
2018-01-14T01:02:10.270Z,95380.43
2018-01-14T01:04:38.631Z,95371.83
2018-01-14T01:07:07.022Z,95382.55
2018-01-14T01:09:35.397Z,95377.55
2018-01-14T01:12:03.756Z,95376.27
2018-01-14T01:14:32.111Z,95367.31
2018-01-14T01:17:00.528Z,95372.50
2018-01-14T01:19:28.888Z,95374.79
2018-01-14T01:21:57.270Z,95372.88
2018-01-14T01:24:25.647Z,95373.75
2018-01-14T01:26:53.991Z,95371.47
2018-01-14T01:29:22.358Z,95359.64
2018-01-14T01:31:50.754Z,95356.24
2018-01-14T01:34:19.267Z,95360.84
2018-01-14T01:36:47.626Z,95362.64
2018-01-14T01:39:15.980Z,95359.91
2018-01-14T01:41:44.374Z,95359.31
2018-01-14T01:44:12.719Z,95353.58
2018-01-14T01:46:41.105Z,95355.41
2018-01-14T01:49:09.455Z,95358.02
2018-01-14T01:51:37.815Z,95353.38
2018-01-14T01:54:06.174Z,95364.04
2018-01-14T01:56:34.563Z,95369.62
2018-01-14T01:59:02.935Z,95356.34
2018-01-14T02:01:31.304Z,95358.27
2018-01-14T02:03:59.663Z,95348.45
2018-01-14T02:06:28.033Z,95348.48
2018-01-14T02:08:56.508Z,95347.84
2018-01-14T02:11:24.866Z,95337.61
2018-01-14T02:13:53.225Z,95348.03
2018-01-14T02:16:21.582Z,95344.89
2018-01-14T02:18:49.940Z,95346.54
2018-01-14T02:21:18.334Z,95342.41
2018-01-14T02:23:46.708Z,95346.51
2018-01-14T02:26:15.069Z,95348.41
2018-01-14T02:28:43.415Z,95349.91
2018-01-14T02:31:11.768Z,95344.13
2018-01-14T02:33:40.147Z,95345.36
2018-01-14T02:36:08.580Z,95341.03
2018-01-14T02:38:36.960Z,95348.84
2018-01-14T02:41:05.338Z,95351.27
2018-01-14T02:43:33.703Z,95350.94
2018-01-14T02:46:02.070Z,95350.77
2018-01-14T02:48:30.428Z,95339.45
2018-01-14T02:50:58.816Z,95359.30
2018-01-14T02:53:27.196Z,95351.55
2018-01-14T02:55:55.558Z,95340.19
2018-01-14T02:58:23.914Z,95344.49
2018-01-14T03:00:52.268Z,95344.35
2018-01-14T03:03:20.647Z,95339.16
2018-01-14T03:05:49.039Z,95343.07
2018-01-14T03:08:17.421Z,95344.74
2018-01-14T03:10:45.791Z,95342.29
2018-01-14T03:13:14.151Z,95339.38
2018-01-14T03:15:42.527Z,95339.76
2018-01-14T03:18:10.935Z,95328.42
2018-01-14T03:20:39.289Z,95332.86
2018-01-14T03:23:07.661Z,95333.60
2018-01-14T03:25:36.038Z,95332.47
2018-01-14T03:28:04.432Z,95337.52
2018-01-14T03:30:32.821Z,95341.11
2018-01-14T03:33:01.191Z,95338.98
2018-01-14T03:35:29.593Z,95342.21
2018-01-14T03:37:57.965Z,95343.48
2018-01-14T03:40:26.349Z,95326.75
2018-01-14T03:42:54.702Z,95329.13
2018-01-14T03:45:23.058Z,95330.22
2018-01-14T03:47:51.440Z,95335.42
2018-01-14T03:50:19.793Z,95339.70
2018-01-14T03:52:48.343Z,95343.37
2018-01-14T03:55:16.698Z,95348.88
2018-01-14T03:57:45.060Z,95349.23
2018-01-14T04:00:33.215Z,95347.36
2018-01-14T04:03:01.573Z,95347.69
2018-01-14T04:05:30.009Z,95341.57
2018-01-14T04:07:58.436Z,95336.85
2018-01-14T04:10:26.820Z,95345.52
2018-01-14T04:12:55.318Z,95338.95
2018-01-14T04:15:23.672Z,95331.16
2018-01-14T04:17:52.079Z,95324.52
2018-01-14T04:20:20.427Z,95328.73
2018-01-14T04:22:48.785Z,95329.88
2018-01-14T04:25:17.208Z,95330.19
2018-01-14T04:27:45.563Z,95329.47
2018-01-14T04:30:13.969Z,95334.97
2018-01-14T04:32:42.322Z,95334.94
2018-01-14T04:35:10.753Z,95334.30
2018-01-14T04:37:39.162Z,95325.68
2018-01-14T04:40:07.538Z,95329.53
2018-01-14T04:42:35.928Z,95327.75
2018-01-14T04:45:04.296Z,95332.11
2018-01-14T04:47:32.643Z,95335.03
2018-01-14T04:50:01.049Z,95322.34
2018-01-14T04:52:29.405Z,95319.81
2018-01-14T04:54:57.843Z,95328.53
2018-01-14T04:57:26.215Z,95324.06
2018-01-14T04:59:54.566Z,95322.14
2018-01-14T05:02:22.946Z,95331.83
2018-01-14T05:04:51.304Z,95322.44
2018-01-14T05:07:19.701Z,95328.41
2018-01-14T05:09:48.077Z,95325.24
2018-01-14T05:12:16.431Z,95329.91
2018-01-14T05:14:44.782Z,95329.52
2018-01-14T05:17:13.150Z,95341.38
2018-01-14T05:19:41.549Z,95326.22
2018-01-14T05:22:09.908Z,95339.14
2018-01-14T05:24:38.276Z,95332.92
2018-01-14T05:27:06.634Z,95334.92
2018-01-14T05:29:34.994Z,95339.58
2018-01-14T05:32:03.393Z,95342.88
2018-01-14T05:34:31.744Z,95337.21
2018-01-14T05:37:00.109Z,95337.31
2018-01-14T05:39:28.476Z,95345.67
2018-01-14T05:41:56.845Z,95340.91
2018-01-14T05:44:25.223Z,95343.15
2018-01-14T05:46:53.578Z,95343.66
2018-01-14T05:49:21.928Z,95342.28
2018-01-14T05:51:50.299Z,95344.27
2018-01-14T05:54:18.663Z,95333.17
2018-01-14T05:56:47.047Z,95333.20
2018-01-14T05:59:15.422Z,95344.11
2018-01-14T06:01:43.877Z,95346.53
2018-01-14T06:04:12.231Z,95329.21
2018-01-14T06:06:40.595Z,95342.66
2018-01-14T06:09:08.991Z,95340.71
2018-01-14T06:11:37.354Z,95338.86
2018-01-14T06:14:05.725Z,95333.67
2018-01-14T06:16:34.087Z,95336.80
2018-01-14T06:19:02.460Z,95332.70
2018-01-14T06:21:30.855Z,95331.46
2018-01-14T06:23:59.201Z,95335.16
2018-01-14T06:26:27.564Z,95339.27
2018-01-14T06:28:55.907Z,95330.53
2018-01-14T06:31:24.268Z,95332.95
2018-01-14T06:33:52.648Z,95337.27
2018-01-14T06:36:21.004Z,95332.74
2018-01-14T06:38:49.421Z,95331.73
2018-01-14T06:41:17.788Z,95339.09
2018-01-14T06:43:46.175Z,95330.92
2018-01-14T06:46:14.588Z,95338.89
2018-01-14T06:48:42.946Z,95332.77
2018-01-14T06:51:11.338Z,95333.27
2018-01-14T06:53:39.787Z,95333.62
2018-01-14T06:56:08.145Z,95327.22
2018-01-14T06:58:36.512Z,95328.20
2018-01-14T07:01:04.868Z,95330.67
2018-01-14T07:03:33.260Z,95328.44
2018-01-14T07:06:01.624Z,95332.77
2018-01-14T07:08:29.988Z,95334.77
2018-01-14T07:10:58.398Z,95334.47
2018-01-14T07:13:26.771Z,95340.25
2018-01-14T07:15:55.163Z,95348.08
2018-01-14T07:18:23.528Z,95342.17
2018-01-14T07:20:51.896Z,95337.33
2018-01-14T07:23:20.266Z,95336.55
2018-01-14T07:25:48.630Z,95331.22
2018-01-14T07:28:17.027Z,95323.25
2018-01-14T07:30:45.412Z,95328.42
2018-01-14T07:33:13.785Z,95328.05
2018-01-14T07:35:42.167Z,95341.60
2018-01-14T07:38:10.566Z,95336.16
2018-01-14T07:40:38.957Z,95328.10
2018-01-14T07:43:07.450Z,95334.91
2018-01-14T07:45:35.807Z,95338.78
2018-01-14T07:48:04.199Z,95342.95
2018-01-14T07:50:32.586Z,95348.74
2018-01-14T07:53:01.107Z,95347.81
2018-01-14T07:55:29.453Z,95349.28
2018-01-14T07:57:57.876Z,95357.92
2018-01-14T08:00:26.269Z,95358.33
2018-01-14T08:05:28.117Z,95366.66
2018-01-14T08:07:56.553Z,95371.00
2018-01-14T08:10:24.976Z,95372.31
2018-01-14T08:12:53.354Z,95374.61
2018-01-14T08:15:21.730Z,95381.80
2018-01-14T08:17:50.090Z,95378.95
2018-01-14T08:20:18.508Z,95383.56
2018-01-14T08:22:46.868Z,95383.52
2018-01-14T08:25:15.239Z,95379.56
2018-01-14T08:27:43.658Z,95384.88
2018-01-14T08:30:12.019Z,95375.67
2018-01-14T08:32:40.432Z,95378.62
2018-01-14T08:35:08.834Z,95386.24
2018-01-14T08:37:37.193Z,95382.93
2018-01-14T08:40:05.551Z,95387.66
2018-01-14T08:42:33.919Z,95375.73
2018-01-14T08:45:02.333Z,95382.06
2018-01-14T08:47:30.704Z,95377.09
2018-01-14T08:49:59.189Z,95373.94
2018-01-14T08:52:27.550Z,95384.88
2018-01-14T08:54:55.938Z,95378.23
2018-01-14T08:57:24.336Z,95377.92
2018-01-14T08:59:52.687Z,95383.15
2018-01-14T09:02:21.106Z,95390.42
2018-01-14T09:04:49.514Z,95383.36
2018-01-14T09:07:17.916Z,95383.94
2018-01-14T09:09:46.323Z,95370.64
2018-01-14T09:12:14.686Z,95386.50
2018-01-14T09:14:43.119Z,95381.25
2018-01-14T09:17:11.545Z,95378.48
2018-01-14T09:19:39.899Z,95379.32
2018-01-14T09:22:08.301Z,95382.73
2018-01-14T09:24:36.730Z,95381.17
2018-01-14T09:27:05.071Z,95368.98
2018-01-14T09:29:33.450Z,95381.47
2018-01-14T09:32:01.837Z,95370.73
2018-01-14T09:34:30.227Z,95383.52
2018-01-14T09:36:58.806Z,95390.77
2018-01-14T09:39:27.207Z,95381.84
2018-01-14T09:41:55.578Z,95383.87
2018-01-14T09:44:23.941Z,95378.34
2018-01-14T09:46:52.306Z,95386.80
2018-01-14T09:49:20.703Z,95382.77
2018-01-14T09:51:49.101Z,95373.09
2018-01-14T09:54:17.528Z,95373.12
2018-01-14T09:56:45.898Z,95374.73
2018-01-14T09:59:14.387Z,95375.39
2018-01-14T10:01:42.778Z,95370.97
2018-01-14T10:04:11.191Z,95367.45
2018-01-14T10:06:39.567Z,95362.95
2018-01-14T10:09:07.947Z,95359.17
2018-01-14T10:11:36.298Z,95363.21
2018-01-14T10:14:04.763Z,95353.37
2018-01-14T10:16:33.115Z,95354.85
2018-01-14T10:19:01.485Z,95354.58
2018-01-14T10:21:29.950Z,95359.20
2018-01-14T10:23:58.523Z,95340.31
2018-01-14T10:26:26.905Z,95345.88
2018-01-14T10:28:55.275Z,95347.50
2018-01-14T10:31:23.644Z,95336.76
2018-01-14T10:33:52.108Z,95331.77
2018-01-14T10:36:20.475Z,95336.41
2018-01-14T10:38:48.836Z,95346.75
2018-01-14T10:41:17.191Z,95334.63
2018-01-14T10:43:45.558Z,95346.38
2018-01-14T10:46:14.032Z,95344.70
2018-01-14T10:48:42.376Z,95340.36
2018-01-14T10:51:10.746Z,95341.66
2018-01-14T10:53:39.112Z,95338.05
2018-01-14T10:56:07.497Z,95349.48
2018-01-14T10:58:35.908Z,95319.83
2018-01-14T11:01:04.309Z,95320.56
2018-01-14T11:03:32.656Z,95323.11
2018-01-14T11:06:01.888Z,95323.41
2018-01-14T11:08:30.232Z,95325.58
2018-01-14T11:10:58.660Z,95311.63
2018-01-14T11:13:27.009Z,95311.21
2018-01-14T11:15:55.381Z,95300.13
2018-01-14T11:18:23.746Z,95297.08
2018-01-14T11:20:52.100Z,95317.48
2018-01-14T11:23:20.575Z,95298.77
2018-01-14T11:25:48.935Z,95307.66
2018-01-14T11:28:17.298Z,95297.34
2018-01-14T11:30:45.677Z,95300.21
2018-01-14T11:33:14.020Z,95314.15
2018-01-14T11:35:42.412Z,95312.81
2018-01-14T11:38:10.767Z,95313.20
2018-01-14T11:40:39.136Z,95298.37
2018-01-14T11:43:07.564Z,95295.53
2018-01-14T11:45:35.935Z,95290.01
2018-01-14T11:48:04.344Z,95303.69
2018-01-14T11:50:32.707Z,95296.51
2018-01-14T11:53:01.061Z,95296.62
2018-01-14T11:55:29.477Z,95292.47
2018-01-14T11:57:57.877Z,95273.32
2018-01-14T12:00:26.270Z,95282.64
2018-01-14T12:02:54.631Z,95278.08
2018-01-14T12:05:22.977Z,95284.41
2018-01-14T12:07:51.370Z,95272.78
2018-01-14T12:10:19.764Z,95261.75
2018-01-14T12:12:49.048Z,95261.11
2018-01-14T12:15:17.467Z,95254.53
2018-01-14T12:17:45.811Z,95265.32
2018-01-14T12:20:14.192Z,95251.02
2018-01-14T12:22:42.583Z,95257.16
2018-01-14T12:25:10.976Z,95263.28
2018-01-14T12:27:39.358Z,95256.58
2018-01-14T12:30:07.710Z,95255.75
2018-01-14T12:32:47.717Z,95268.90
2018-01-14T12:35:16.085Z,95266.16
2018-01-14T12:37:44.519Z,95263.38
2018-01-14T12:40:13.022Z,95254.33
2018-01-14T12:42:41.381Z,95251.52
2018-01-14T12:45:09.768Z,95253.48
2018-01-14T12:47:38.107Z,95268.22
2018-01-14T12:50:06.558Z,95247.09
2018-01-14T12:52:34.902Z,95258.84
2018-01-14T12:55:03.264Z,95257.72
2018-01-14T12:57:31.641Z,95250.98
2018-01-14T12:59:59.988Z,95255.16
2018-01-14T13:02:28.440Z,95252.02
2018-01-14T13:04:56.804Z,95250.89
2018-01-14T13:07:25.166Z,95243.17
2018-01-14T13:09:53.539Z,95242.60
2018-01-14T13:12:21.905Z,95243.28
2018-01-14T13:14:50.277Z,95243.64
2018-01-14T13:17:18.675Z,95247.19
2018-01-14T13:19:47.035Z,95245.09
2018-01-14T13:22:15.400Z,95239.31
2018-01-14T13:24:43.815Z,95241.06
2018-01-14T13:27:12.194Z,95233.83
2018-01-14T13:29:40.558Z,95247.91
2018-01-14T13:32:08.938Z,95239.33
2018-01-14T13:34:37.324Z,95244.29
2018-01-14T13:37:05.689Z,95247.56
2018-01-14T13:39:34.051Z,95244.37
2018-01-14T13:42:02.418Z,95242.70
2018-01-14T13:44:30.807Z,95254.87
2018-01-14T13:46:59.238Z,95245.06
2018-01-14T13:49:27.586Z,95241.02
2018-01-14T13:51:55.944Z,95235.23
2018-01-14T13:54:24.330Z,95237.69
2018-01-14T13:56:52.686Z,95228.44
2018-01-14T13:59:21.087Z,95239.95
2018-01-14T14:01:49.452Z,95245.72
2018-01-14T14:04:17.841Z,95241.25
2018-01-14T14:06:46.328Z,95240.36
2018-01-14T14:09:14.701Z,95245.91
2018-01-14T14:11:43.125Z,95249.73
2018-01-14T14:14:11.483Z,95250.73
2018-01-14T14:16:39.859Z,95248.75
2018-01-14T14:19:08.246Z,95246.28
2018-01-14T14:21:36.640Z,95248.84
2018-01-14T14:24:05.059Z,95247.52
2018-01-14T14:26:33.444Z,95249.12
2018-01-14T14:29:01.793Z,95253.14
2018-01-14T14:31:30.204Z,95248.38
2018-01-14T14:33:58.601Z,95248.28
2018-01-14T14:36:27.168Z,95250.47
2018-01-14T14:38:55.559Z,95245.20
2018-01-14T14:41:23.935Z,95251.30
2018-01-14T14:43:52.291Z,95248.08
2018-01-14T14:46:20.683Z,95254.75
2018-01-14T14:48:49.249Z,95254.06
2018-01-14T14:51:17.672Z,95248.45
2018-01-14T14:53:46.035Z,95251.87
2018-01-14T14:56:14.403Z,95251.31
2018-01-14T14:58:42.810Z,95249.32
2018-01-14T15:01:11.242Z,95249.88
2018-01-14T15:03:39.649Z,95243.19
2018-01-14T15:06:08.006Z,95246.16
2018-01-14T15:08:36.401Z,95243.95
2018-01-14T15:11:04.758Z,95245.99
2018-01-14T15:13:33.123Z,95243.86
2018-01-14T15:16:01.482Z,95241.65
2018-01-14T15:18:29.891Z,95240.59
2018-01-14T15:20:58.257Z,95242.78
2018-01-14T15:23:26.658Z,95245.60
2018-01-14T15:25:55.224Z,95245.37
2018-01-14T15:28:23.653Z,95233.30
2018-01-14T15:30:52.069Z,95246.84
2018-01-14T15:33:20.427Z,95248.08
2018-01-14T15:35:48.807Z,95245.63
2018-01-14T15:38:17.172Z,95244.95
2018-01-14T15:40:45.659Z,95249.19
2018-01-14T15:43:14.051Z,95242.53
2018-01-14T15:45:42.668Z,95238.27
2018-01-14T15:48:11.047Z,95238.37
2018-01-14T15:50:39.402Z,95238.31
2018-01-14T15:53:07.785Z,95240.37
2018-01-14T15:55:36.192Z,95241.23
2018-01-14T15:58:04.559Z,95240.59
2018-01-14T16:00:32.902Z,95239.02
2018-01-14T16:03:01.295Z,95237.94
2018-01-14T16:05:29.668Z,95235.70
2018-01-14T16:07:58.090Z,95230.59
2018-01-14T16:10:26.453Z,95240.03
2018-01-14T16:12:54.834Z,95231.95
2018-01-14T16:15:23.189Z,95241.74
2018-01-14T16:17:51.551Z,95237.45
2018-01-14T16:20:19.956Z,95233.81
2018-01-14T16:22:48.324Z,95241.61
2018-01-14T16:25:16.712Z,95237.75
2018-01-14T16:27:45.083Z,95234.40
2018-01-14T16:30:13.452Z,95232.05
2018-01-14T16:32:41.859Z,95243.97
2018-01-14T16:35:10.217Z,95244.06
2018-01-14T16:37:38.580Z,95230.20
2018-01-14T16:40:06.964Z,95225.36
2018-01-14T16:42:35.313Z,95236.30
2018-01-14T16:45:03.691Z,95225.96
2018-01-14T16:47:32.075Z,95229.70
2018-01-14T16:50:00.429Z,95226.83
2018-01-14T16:52:28.818Z,95235.84
2018-01-14T16:54:57.187Z,95233.25
2018-01-14T16:57:25.596Z,95229.73
2018-01-14T16:59:53.954Z,95235.12
2018-01-14T17:02:22.312Z,95227.23
2018-01-14T17:04:50.668Z,95217.86
2018-01-14T17:07:19.016Z,95214.20
2018-01-14T17:09:47.416Z,95225.41
2018-01-14T17:12:15.759Z,95214.34
2018-01-14T17:14:44.131Z,95221.19
2018-01-14T17:17:12.481Z,95222.36
2018-01-14T17:19:40.850Z,95225.33
2018-01-14T17:22:09.236Z,95236.34
2018-01-14T17:24:37.581Z,95231.01
2018-01-14T17:27:05.986Z,95239.30
2018-01-14T17:29:34.354Z,95235.14
2018-01-14T17:32:02.752Z,95235.75
2018-01-14T17:34:34.107Z,95227.36
2018-01-14T17:37:02.459Z,95237.14
2018-01-14T17:39:30.813Z,95240.48
2018-01-14T17:42:07.684Z,95241.32
2018-01-14T17:44:36.067Z,95235.32
2018-01-14T17:47:04.451Z,95242.38
2018-01-14T17:49:32.810Z,95231.16
2018-01-14T17:52:01.175Z,95231.47
2018-01-14T17:54:32.485Z,95230.22
2018-01-14T17:57:00.963Z,95236.95
2018-01-14T17:59:29.403Z,95244.85
2018-01-14T18:01:57.754Z,95230.25
2018-01-14T18:04:26.378Z,95241.50
2018-01-14T18:06:54.747Z,95229.27
2018-01-14T18:09:23.204Z,95228.89
2018-01-14T18:11:51.620Z,95231.18
2018-01-14T18:14:19.987Z,95228.07
2018-01-14T18:16:57.963Z,95243.23
2018-01-14T18:19:26.312Z,95192.25
2018-01-14T18:21:54.706Z,95221.20
2018-01-14T18:24:23.178Z,95220.80
2018-01-14T18:26:51.530Z,95220.58
2018-01-14T18:29:19.888Z,95230.93
2018-01-14T18:31:48.256Z,95220.42
2018-01-14T18:34:16.652Z,95220.69
2018-01-14T18:36:45.046Z,95213.11
2018-01-14T18:39:13.410Z,95193.28
2018-01-14T18:41:41.799Z,95197.92
2018-01-14T18:44:10.216Z,95196.02
2018-01-14T18:46:38.577Z,95191.31
2018-01-14T18:49:06.923Z,95201.06
2018-01-14T18:51:35.328Z,95209.17
2018-01-14T18:54:03.688Z,95203.91
2018-01-14T18:56:32.052Z,95208.01
2018-01-14T18:59:02.319Z,95201.86
2018-01-14T19:01:30.691Z,95200.75
2018-01-14T19:03:59.191Z,95196.73
2018-01-14T19:06:27.551Z,95201.94
2018-01-14T19:08:55.974Z,95188.63
2018-01-14T19:11:24.317Z,95184.20
2018-01-14T19:13:52.682Z,95198.16
2018-01-14T19:16:21.296Z,95179.72
2018-01-14T19:18:49.659Z,95188.95
2018-01-14T19:21:18.019Z,95175.30
2018-01-14T19:23:46.358Z,95182.39
2018-01-14T19:26:14.744Z,95179.75
2018-01-14T19:28:43.112Z,95188.80
2018-01-14T19:31:11.464Z,95181.62
2018-01-14T19:33:39.810Z,95190.19
2018-01-14T19:36:08.156Z,95188.08
2018-01-14T19:38:36.639Z,95184.98
2018-01-14T19:41:04.977Z,95181.41
2018-01-14T19:43:33.385Z,95182.39
2018-01-14T19:46:01.776Z,95170.38
2018-01-14T19:48:30.122Z,95173.81
2018-01-14T19:50:58.623Z,95180.25
2018-01-14T19:53:26.985Z,95189.77
2018-01-14T19:55:55.439Z,95185.25
2018-01-14T19:58:23.803Z,95186.62
2018-01-14T20:00:52.173Z,95187.59
2018-01-14T20:03:20.547Z,95184.58
2018-01-14T20:05:48.924Z,95189.69
2018-01-14T20:08:17.292Z,95184.00
2018-01-14T20:10:45.641Z,95179.76
2018-01-14T20:13:14.394Z,95204.97
2018-01-14T20:15:42.744Z,95189.72
2018-01-14T20:18:11.118Z,95186.56
2018-01-14T20:20:39.485Z,95184.73
2018-01-14T20:23:07.843Z,95200.93
2018-01-14T20:25:36.219Z,95190.48
2018-01-14T20:28:04.600Z,95189.11
2018-01-14T20:30:32.959Z,95191.17
2018-01-14T20:33:01.308Z,95190.33
2018-01-14T20:35:29.670Z,95199.31
2018-01-14T20:37:58.076Z,95201.59
2018-01-14T20:40:26.500Z,95195.08
2018-01-14T20:42:54.861Z,95195.89
2018-01-14T20:45:23.212Z,95205.40
2018-01-14T20:47:51.579Z,95195.59
2018-01-14T20:50:19.994Z,95208.11
2018-01-14T20:52:48.386Z,95203.27
2018-01-14T20:55:16.738Z,95205.27
2018-01-14T20:57:45.088Z,95203.41
2018-01-14T21:00:13.449Z,95200.14
2018-01-14T21:02:41.821Z,95205.05
2018-01-14T21:05:10.306Z,95204.66
2018-01-14T21:07:38.688Z,95211.27
2018-01-14T21:10:07.105Z,95210.28
2018-01-14T21:12:35.459Z,95212.02
2018-01-14T21:15:03.838Z,95210.48
2018-01-14T21:17:32.237Z,95212.55
2018-01-14T21:20:00.662Z,95211.74
2018-01-14T21:22:29.274Z,95212.81
2018-01-14T21:24:57.752Z,95202.02
2018-01-14T21:27:26.150Z,95205.98
2018-01-14T21:29:54.612Z,95199.68
2018-01-14T21:32:23.091Z,95208.10
2018-01-14T21:34:51.562Z,95206.13
2018-01-14T21:37:20.004Z,95191.53
2018-01-14T21:39:48.381Z,95197.27
2018-01-14T21:42:16.939Z,95185.64
2018-01-14T21:44:45.428Z,95187.04
2018-01-14T21:47:13.792Z,95187.47
2018-01-14T21:49:42.151Z,95180.18
2018-01-14T21:52:10.506Z,95181.96
2018-01-14T21:54:38.899Z,95176.84
2018-01-14T21:57:07.268Z,95176.88
2018-01-14T21:59:35.659Z,95162.34
2018-01-14T22:02:04.032Z,95153.66
2018-01-14T22:04:32.448Z,95142.02
2018-01-14T22:07:00.909Z,95157.17
2018-01-14T22:09:29.302Z,95156.41
2018-01-14T22:11:57.647Z,95151.97
2018-01-14T22:14:26.006Z,95149.80
2018-01-14T22:16:54.421Z,95145.67
2018-01-14T22:19:22.764Z,95145.97
2018-01-14T22:21:51.119Z,95149.14
2018-01-14T22:24:19.475Z,95150.94
2018-01-14T22:26:47.832Z,95132.16
2018-01-14T22:29:16.221Z,95134.45
2018-01-14T22:31:44.578Z,95152.31
2018-01-14T22:34:12.944Z,95144.16
2018-01-14T22:36:41.310Z,95140.92
2018-01-14T22:39:09.662Z,95142.95
2018-01-14T22:41:38.052Z,95142.37
2018-01-14T22:44:06.425Z,95146.97
2018-01-14T22:46:34.821Z,95150.41
2018-01-14T22:49:03.187Z,95136.18
2018-01-14T22:51:31.565Z,95126.59
2018-01-14T22:53:59.951Z,95131.66
2018-01-14T22:56:28.444Z,95124.79
2018-01-14T22:58:56.794Z,95112.71
2018-01-14T23:01:25.158Z,95116.19
2018-01-14T23:03:53.517Z,95115.71
2018-01-14T23:06:21.895Z,95116.03
2018-01-14T23:08:50.265Z,95117.77
2018-01-14T23:11:18.603Z,95108.24
2018-01-14T23:13:47.010Z,95103.39
2018-01-14T23:16:15.362Z,95125.27
2018-01-14T23:18:43.728Z,95109.41
2018-01-14T23:21:12.101Z,95116.09
2018-01-14T23:23:40.467Z,95111.70
2018-01-14T23:26:08.907Z,95099.38
2018-01-14T23:28:37.239Z,95127.00
2018-01-14T23:31:05.642Z,95113.24
2018-01-14T23:33:34.016Z,95113.00
2018-01-14T23:36:02.368Z,95105.94
2018-01-14T23:38:30.776Z,95109.61
2018-01-14T23:41:00.037Z,95109.73
2018-01-14T23:43:28.392Z,95109.29
2018-01-14T23:45:56.747Z,95109.63
2018-01-14T23:48:25.106Z,95104.84
2018-01-14T23:50:53.497Z,95107.23
2018-01-14T23:53:21.923Z,95102.55
2018-01-14T23:55:50.288Z,95107.58
2018-01-14T23:58:18.647Z,95115.64
